sensor_id;sensor_type;location;lat;lon;timestamp;P1;durP1;ratioP1;P2;durP2;ratioP2
65463;SDS011;52063;45.110;9.870;2023-05-07T00:02:11;3.00;;;2.80;;
65463;SDS011;52063;45.110;9.870;2023-05-07T00:04:36;2.57;;;2.37;;
65463;SDS011;52063;45.110;9.870;2023-05-07T00:07:03;2.90;;;2.70;;
65463;SDS011;52063;45.110;9.870;2023-05-07T00:09:29;3.05;;;2.85;;
65463;SDS011;52063;45.110;9.870;2023-05-07T00:11:54;2.80;;;2.60;;
65463;SDS011;52063;45.110;9.870;2023-05-07T00:14:20;3.03;;;2.83;;
65463;SDS011;52063;45.110;9.870;2023-05-07T00:16:46;2.80;;;2.60;;
65463;SDS011;52063;45.110;9.870;2023-05-07T00:19:11;3.50;;;2.80;;
65463;SDS011;52063;45.110;9.870;2023-05-07T00:21:37;3.33;;;3.03;;
65463;SDS011;52063;45.110;9.870;2023-05-07T00:24:02;3.30;;;3.00;;
65463;SDS011;52063;45.110;9.870;2023-05-07T00:26:28;3.07;;;2.87;;
65463;SDS011;52063;45.110;9.870;2023-05-07T00:28:53;3.25;;;3.00;;
65463;SDS011;52063;45.110;9.870;2023-05-07T00:31:19;2.73;;;2.53;;
65463;SDS011;52063;45.110;9.870;2023-05-07T00:33:44;2.93;;;2.73;;
65463;SDS011;52063;45.110;9.870;2023-05-07T00:36:10;3.10;;;2.90;;
65463;SDS011;52063;45.110;9.870;2023-05-07T00:38:35;2.70;;;2.50;;
65463;SDS011;52063;45.110;9.870;2023-05-07T00:41:01;4.73;;;3.27;;
65463;SDS011;52063;45.110;9.870;2023-05-07T00:43:27;3.08;;;2.88;;
65463;SDS011;52063;45.110;9.870;2023-05-07T00:45:53;3.17;;;2.97;;
65463;SDS011;52063;45.110;9.870;2023-05-07T00:48:19;3.20;;;2.97;;
65463;SDS011;52063;45.110;9.870;2023-05-07T00:50:44;2.65;;;2.45;;
65463;SDS011;52063;45.110;9.870;2023-05-07T00:53:10;3.63;;;2.63;;
65463;SDS011;52063;45.110;9.870;2023-05-07T00:55:36;3.25;;;2.67;;
65463;SDS011;52063;45.110;9.870;2023-05-07T00:58:02;2.92;;;2.72;;
65463;SDS011;52063;45.110;9.870;2023-05-07T01:00:27;2.67;;;2.47;;
65463;SDS011;52063;45.110;9.870;2023-05-07T01:02:53;2.93;;;2.67;;
65463;SDS011;52063;45.110;9.870;2023-05-07T01:05:19;8.35;;;3.15;;
65463;SDS011;52063;45.110;9.870;2023-05-07T01:07:45;2.80;;;2.60;;
65463;SDS011;52063;45.110;9.870;2023-05-07T01:10:11;2.90;;;2.70;;
65463;SDS011;52063;45.110;9.870;2023-05-07T01:12:37;3.33;;;3.03;;
65463;SDS011;52063;45.110;9.870;2023-05-07T01:15:03;2.90;;;2.70;;
65463;SDS011;52063;45.110;9.870;2023-05-07T01:17:33;2.85;;;2.65;;
65463;SDS011;52063;45.110;9.870;2023-05-07T01:20:00;2.73;;;2.53;;
65463;SDS011;52063;45.110;9.870;2023-05-07T01:22:32;2.88;;;2.67;;
65463;SDS011;52063;45.110;9.870;2023-05-07T01:24:58;2.67;;;2.47;;
65463;SDS011;52063;45.110;9.870;2023-05-07T01:27:27;2.90;;;2.70;;
65463;SDS011;52063;45.110;9.870;2023-05-07T01:29:52;3.70;;;2.80;;
65463;SDS011;52063;45.110;9.870;2023-05-07T01:32:23;2.83;;;2.58;;
65463;SDS011;52063;45.110;9.870;2023-05-07T01:34:59;2.83;;;2.63;;
65463;SDS011;52063;45.110;9.870;2023-05-07T01:37:25;2.88;;;2.53;;
65463;SDS011;52063;45.110;9.870;2023-05-07T01:39:51;3.22;;;2.53;;
65463;SDS011;52063;45.110;9.870;2023-05-07T01:42:17;3.33;;;2.33;;
65463;SDS011;52063;45.110;9.870;2023-05-07T01:44:43;2.87;;;2.60;;
65463;SDS011;52063;45.110;9.870;2023-05-07T01:47:08;2.40;;;2.20;;
65463;SDS011;52063;45.110;9.870;2023-05-07T01:49:34;3.05;;;2.50;;
65463;SDS011;52063;45.110;9.870;2023-05-07T01:52:00;3.17;;;2.67;;
65463;SDS011;52063;45.110;9.870;2023-05-07T01:54:26;3.20;;;2.78;;
65463;SDS011;52063;45.110;9.870;2023-05-07T01:56:56;2.70;;;2.50;;
65463;SDS011;52063;45.110;9.870;2023-05-07T01:59:22;3.10;;;2.88;;
65463;SDS011;52063;45.110;9.870;2023-05-07T02:01:47;3.30;;;2.40;;
65463;SDS011;52063;45.110;9.870;2023-05-07T02:04:13;2.67;;;2.40;;
65463;SDS011;52063;45.110;9.870;2023-05-07T02:06:38;3.83;;;2.60;;
65463;SDS011;52063;45.110;9.870;2023-05-07T02:09:06;2.63;;;2.42;;
65463;SDS011;52063;45.110;9.870;2023-05-07T02:11:31;3.23;;;3.03;;
65463;SDS011;52063;45.110;9.870;2023-05-07T02:13:57;2.83;;;2.63;;
65463;SDS011;52063;45.110;9.870;2023-05-07T02:16:22;2.60;;;2.40;;
65463;SDS011;52063;45.110;9.870;2023-05-07T02:18:49;2.50;;;2.30;;
65463;SDS011;52063;45.110;9.870;2023-05-07T02:21:15;2.70;;;2.50;;
65463;SDS011;52063;45.110;9.870;2023-05-07T02:23:40;2.55;;;2.35;;
65463;SDS011;52063;45.110;9.870;2023-05-07T02:26:06;3.93;;;2.33;;
65463;SDS011;52063;45.110;9.870;2023-05-07T02:28:32;2.60;;;2.40;;
65463;SDS011;52063;45.110;9.870;2023-05-07T02:31:01;3.07;;;2.87;;
65463;SDS011;52063;45.110;9.870;2023-05-07T02:33:28;2.83;;;2.63;;
65463;SDS011;52063;45.110;9.870;2023-05-07T02:35:55;3.35;;;2.60;;
65463;SDS011;52063;45.110;9.870;2023-05-07T02:38:20;2.93;;;2.50;;
65463;SDS011;52063;45.110;9.870;2023-05-07T02:40:47;2.60;;;2.40;;
65463;SDS011;52063;45.110;9.870;2023-05-07T02:43:12;2.58;;;2.38;;
65463;SDS011;52063;45.110;9.870;2023-05-07T02:45:42;2.70;;;2.50;;
65463;SDS011;52063;45.110;9.870;2023-05-07T02:48:08;2.90;;;2.70;;
65463;SDS011;52063;45.110;9.870;2023-05-07T02:50:34;2.47;;;2.27;;
65463;SDS011;52063;45.110;9.870;2023-05-07T02:53:00;2.70;;;2.50;;
65463;SDS011;52063;45.110;9.870;2023-05-07T02:55:25;3.60;;;2.60;;
65463;SDS011;52063;45.110;9.870;2023-05-07T02:57:51;2.73;;;2.53;;
65463;SDS011;52063;45.110;9.870;2023-05-07T03:00:17;3.27;;;2.90;;
65463;SDS011;52063;45.110;9.870;2023-05-07T03:02:51;3.00;;;2.80;;
65463;SDS011;52063;45.110;9.870;2023-05-07T03:05:17;2.60;;;2.40;;
65463;SDS011;52063;45.110;9.870;2023-05-07T03:07:43;2.70;;;2.50;;
65463;SDS011;52063;45.110;9.870;2023-05-07T03:10:11;3.33;;;2.75;;
65463;SDS011;52063;45.110;9.870;2023-05-07T03:12:36;2.70;;;2.50;;
65463;SDS011;52063;45.110;9.870;2023-05-07T03:15:02;2.43;;;2.23;;
65463;SDS011;52063;45.110;9.870;2023-05-07T03:17:27;2.78;;;2.58;;
65463;SDS011;52063;45.110;9.870;2023-05-07T03:19:53;2.50;;;2.30;;
65463;SDS011;52063;45.110;9.870;2023-05-07T03:22:18;2.90;;;2.70;;
65463;SDS011;52063;45.110;9.870;2023-05-07T03:24:44;2.83;;;2.63;;
65463;SDS011;52063;45.110;9.870;2023-05-07T03:27:09;2.50;;;2.30;;
65463;SDS011;52063;45.110;9.870;2023-05-07T03:29:35;2.40;;;2.30;;
65463;SDS011;52063;45.110;9.870;2023-05-07T03:32:00;2.73;;;2.53;;
65463;SDS011;52063;45.110;9.870;2023-05-07T03:34:26;2.80;;;2.60;;
65463;SDS011;52063;45.110;9.870;2023-05-07T03:36:52;2.60;;;2.40;;
65463;SDS011;52063;45.110;9.870;2023-05-07T03:39:18;2.35;;;2.15;;
65463;SDS011;52063;45.110;9.870;2023-05-07T03:41:44;3.00;;;2.80;;
65463;SDS011;52063;45.110;9.870;2023-05-07T03:44:10;2.60;;;2.40;;
65463;SDS011;52063;45.110;9.870;2023-05-07T03:46:35;2.97;;;2.50;;
65463;SDS011;52063;45.110;9.870;2023-05-07T03:49:01;2.50;;;2.30;;
65463;SDS011;52063;45.110;9.870;2023-05-07T03:51:28;2.85;;;2.50;;
65463;SDS011;52063;45.110;9.870;2023-05-07T03:53:53;2.70;;;2.50;;
65463;SDS011;52063;45.110;9.870;2023-05-07T03:56:19;3.47;;;2.58;;
65463;SDS011;52063;45.110;9.870;2023-05-07T03:58:49;2.80;;;2.60;;
65463;SDS011;52063;45.110;9.870;2023-05-07T04:01:14;2.57;;;2.33;;
65463;SDS011;52063;45.110;9.870;2023-05-07T04:03:40;3.10;;;2.90;;
65463;SDS011;52063;45.110;9.870;2023-05-07T04:06:06;2.90;;;2.70;;
65463;SDS011;52063;45.110;9.870;2023-05-07T04:08:33;3.08;;;2.88;;
65463;SDS011;52063;45.110;9.870;2023-05-07T04:10:59;2.77;;;2.50;;
65463;SDS011;52063;45.110;9.870;2023-05-07T04:13:29;3.95;;;2.70;;
65463;SDS011;52063;45.110;9.870;2023-05-07T04:15:55;5.07;;;2.78;;
65463;SDS011;52063;45.110;9.870;2023-05-07T04:18:21;3.10;;;2.90;;
65463;SDS011;52063;45.110;9.870;2023-05-07T04:20:48;3.08;;;2.88;;
65463;SDS011;52063;45.110;9.870;2023-05-07T04:23:17;3.20;;;3.00;;
65463;SDS011;52063;45.110;9.870;2023-05-07T04:25:42;3.33;;;3.13;;
65463;SDS011;52063;45.110;9.870;2023-05-07T04:28:17;3.13;;;2.92;;
65463;SDS011;52063;45.110;9.870;2023-05-07T04:30:43;3.10;;;2.78;;
65463;SDS011;52063;45.110;9.870;2023-05-07T04:33:09;2.53;;;2.33;;
65463;SDS011;52063;45.110;9.870;2023-05-07T04:35:37;3.03;;;2.80;;
65463;SDS011;52063;45.110;9.870;2023-05-07T04:38:04;2.83;;;2.63;;
65463;SDS011;52063;45.110;9.870;2023-05-07T04:40:29;3.40;;;3.10;;
65463;SDS011;52063;45.110;9.870;2023-05-07T04:42:56;3.00;;;2.80;;
65463;SDS011;52063;45.110;9.870;2023-05-07T04:45:22;3.17;;;2.88;;
65463;SDS011;52063;45.110;9.870;2023-05-07T04:47:47;3.27;;;3.07;;
65463;SDS011;52063;45.110;9.870;2023-05-07T04:50:13;5.45;;;3.33;;
65463;SDS011;52063;45.110;9.870;2023-05-07T04:52:39;4.13;;;3.83;;
65463;SDS011;52063;45.110;9.870;2023-05-07T04:55:05;5.50;;;3.20;;
65463;SDS011;52063;45.110;9.870;2023-05-07T04:57:35;3.53;;;3.30;;
65463;SDS011;52063;45.110;9.870;2023-05-07T05:00:03;3.55;;;3.25;;
65463;SDS011;52063;45.110;9.870;2023-05-07T05:02:31;4.90;;;3.50;;
65463;SDS011;52063;45.110;9.870;2023-05-07T05:04:56;4.23;;;3.40;;
65463;SDS011;52063;45.110;9.870;2023-05-07T05:07:22;3.72;;;3.42;;
65463;SDS011;52063;45.110;9.870;2023-05-07T05:09:47;3.03;;;2.83;;
65463;SDS011;52063;45.110;9.870;2023-05-07T05:12:13;4.07;;;3.77;;
65463;SDS011;52063;45.110;9.870;2023-05-07T05:14:38;3.90;;;3.60;;
65463;SDS011;52063;45.110;9.870;2023-05-07T05:17:06;4.17;;;3.87;;
65463;SDS011;52063;45.110;9.870;2023-05-07T05:19:32;3.72;;;3.50;;
65463;SDS011;52063;45.110;9.870;2023-05-07T05:21:58;3.50;;;3.20;;
65463;SDS011;52063;45.110;9.870;2023-05-07T05:24:23;3.67;;;2.90;;
65463;SDS011;52063;45.110;9.870;2023-05-07T05:26:49;3.50;;;3.30;;
65463;SDS011;52063;45.110;9.870;2023-05-07T05:29:15;3.80;;;3.03;;
65463;SDS011;52063;45.110;9.870;2023-05-07T05:31:41;3.50;;;3.17;;
65463;SDS011;52063;45.110;9.870;2023-05-07T05:34:07;3.70;;;3.40;;
65463;SDS011;52063;45.110;9.870;2023-05-07T05:36:34;3.95;;;3.03;;
65463;SDS011;52063;45.110;9.870;2023-05-07T05:39:00;3.23;;;3.03;;
65463;SDS011;52063;45.110;9.870;2023-05-07T05:41:26;3.10;;;2.80;;
65463;SDS011;52063;45.110;9.870;2023-05-07T05:43:52;3.47;;;3.17;;
65463;SDS011;52063;45.110;9.870;2023-05-07T05:46:18;2.67;;;2.47;;
65463;SDS011;52063;45.110;9.870;2023-05-07T05:48:45;3.40;;;3.10;;
65463;SDS011;52063;45.110;9.870;2023-05-07T05:51:11;3.00;;;2.80;;
65463;SDS011;52063;45.110;9.870;2023-05-07T05:53:36;2.83;;;2.63;;
65463;SDS011;52063;45.110;9.870;2023-05-07T05:56:02;3.53;;;3.22;;
65463;SDS011;52063;45.110;9.870;2023-05-07T05:58:29;3.60;;;3.30;;
65463;SDS011;52063;45.110;9.870;2023-05-07T06:00:59;2.93;;;2.73;;
65463;SDS011;52063;45.110;9.870;2023-05-07T06:03:27;3.70;;;3.40;;
65463;SDS011;52063;45.110;9.870;2023-05-07T06:05:55;3.15;;;2.90;;
65463;SDS011;52063;45.110;9.870;2023-05-07T06:08:21;3.00;;;2.80;;
65463;SDS011;52063;45.110;9.870;2023-05-07T06:10:46;3.10;;;2.90;;
65463;SDS011;52063;45.110;9.870;2023-05-07T06:13:13;3.13;;;2.92;;
65463;SDS011;52063;45.110;9.870;2023-05-07T06:15:39;3.75;;;2.85;;
65463;SDS011;52063;45.110;9.870;2023-05-07T06:18:08;3.05;;;2.80;;
65463;SDS011;52063;45.110;9.870;2023-05-07T06:20:34;2.97;;;2.70;;
65463;SDS011;52063;45.110;9.870;2023-05-07T06:23:02;2.70;;;2.50;;
65463;SDS011;52063;45.110;9.870;2023-05-07T06:25:29;2.80;;;2.60;;
65463;SDS011;52063;45.110;9.870;2023-05-07T06:27:54;2.83;;;2.38;;
65463;SDS011;52063;45.110;9.870;2023-05-07T06:30:20;2.90;;;2.70;;
65463;SDS011;52063;45.110;9.870;2023-05-07T06:32:45;3.20;;;3.00;;
65463;SDS011;52063;45.110;9.870;2023-05-07T06:35:12;3.30;;;3.03;;
65463;SDS011;52063;45.110;9.870;2023-05-07T06:37:39;3.70;;;3.40;;
65463;SDS011;52063;45.110;9.870;2023-05-07T06:40:06;4.20;;;3.90;;
65463;SDS011;52063;45.110;9.870;2023-05-07T06:42:35;4.55;;;3.85;;
65463;SDS011;52063;45.110;9.870;2023-05-07T06:45:19;4.03;;;3.73;;
65463;SDS011;52063;45.110;9.870;2023-05-07T06:47:44;5.40;;;4.20;;
65463;SDS011;52063;45.110;9.870;2023-05-07T06:50:10;4.53;;;3.42;;
65463;SDS011;52063;45.110;9.870;2023-05-07T06:52:36;3.87;;;3.57;;
65463;SDS011;52063;45.110;9.870;2023-05-07T06:55:01;4.30;;;3.95;;
65463;SDS011;52063;45.110;9.870;2023-05-07T06:57:27;5.27;;;4.60;;
65463;SDS011;52063;45.110;9.870;2023-05-07T06:59:52;4.40;;;4.10;;
65463;SDS011;52063;45.110;9.870;2023-05-07T07:02:18;4.00;;;3.70;;
65463;SDS011;52063;45.110;9.870;2023-05-07T07:04:45;4.25;;;3.60;;
65463;SDS011;52063;45.110;9.870;2023-05-07T07:07:11;4.03;;;3.33;;
65463;SDS011;52063;45.110;9.870;2023-05-07T07:09:37;3.78;;;3.22;;
65463;SDS011;52063;45.110;9.870;2023-05-07T07:12:04;4.20;;;3.80;;
65463;SDS011;52063;45.110;9.870;2023-05-07T07:14:30;3.93;;;3.30;;
65463;SDS011;52063;45.110;9.870;2023-05-07T07:16:56;4.15;;;3.20;;
65463;SDS011;52063;45.110;9.870;2023-05-07T07:19:22;3.07;;;2.77;;
65463;SDS011;52063;45.110;9.870;2023-05-07T07:21:51;3.88;;;3.10;;
65463;SDS011;52063;45.110;9.870;2023-05-07T07:24:16;3.33;;;2.90;;
65463;SDS011;52063;45.110;9.870;2023-05-07T07:26:47;4.57;;;3.28;;
65463;SDS011;52063;45.110;9.870;2023-05-07T07:29:13;3.42;;;3.13;;
65463;SDS011;52063;45.110;9.870;2023-05-07T07:31:42;3.10;;;2.80;;
65463;SDS011;52063;45.110;9.870;2023-05-07T07:34:08;3.03;;;2.58;;
65463;SDS011;52063;45.110;9.870;2023-05-07T07:36:34;3.85;;;3.28;;
65463;SDS011;52063;45.110;9.870;2023-05-07T07:38:59;3.67;;;3.37;;
65463;SDS011;52063;45.110;9.870;2023-05-07T07:41:25;3.70;;;3.10;;
65463;SDS011;52063;45.110;9.870;2023-05-07T07:43:51;3.30;;;3.00;;
65463;SDS011;52063;45.110;9.870;2023-05-07T07:46:19;2.90;;;2.65;;
65463;SDS011;52063;45.110;9.870;2023-05-07T07:48:44;4.07;;;3.17;;
65463;SDS011;52063;45.110;9.870;2023-05-07T07:51:10;3.17;;;2.58;;
65463;SDS011;52063;45.110;9.870;2023-05-07T07:53:36;2.80;;;2.43;;
65463;SDS011;52063;45.110;9.870;2023-05-07T07:56:01;4.75;;;2.90;;
65463;SDS011;52063;45.110;9.870;2023-05-07T07:58:31;2.78;;;2.58;;
65463;SDS011;52063;45.110;9.870;2023-05-07T08:00:57;2.60;;;2.40;;
65463;SDS011;52063;45.110;9.870;2023-05-07T08:03:24;3.25;;;2.40;;
65463;SDS011;52063;45.110;9.870;2023-05-07T08:05:53;3.28;;;2.22;;
65463;SDS011;52063;45.110;9.870;2023-05-07T08:08:19;3.53;;;2.45;;
65463;SDS011;52063;45.110;9.870;2023-05-07T08:10:45;2.47;;;2.10;;
65463;SDS011;52063;45.110;9.870;2023-05-07T08:13:18;3.20;;;2.25;;
65463;SDS011;52063;45.110;9.870;2023-05-07T08:15:44;3.57;;;2.67;;
65463;SDS011;52063;45.110;9.870;2023-05-07T08:18:11;2.73;;;2.20;;
65463;SDS011;52063;45.110;9.870;2023-05-07T08:20:37;2.85;;;2.55;;
65463;SDS011;52063;45.110;9.870;2023-05-07T08:23:07;3.78;;;2.65;;
65463;SDS011;52063;45.110;9.870;2023-05-07T08:25:33;3.28;;;2.58;;
65463;SDS011;52063;45.110;9.870;2023-05-07T08:27:59;3.13;;;2.83;;
65463;SDS011;52063;45.110;9.870;2023-05-07T08:30:25;3.10;;;2.90;;
65463;SDS011;52063;45.110;9.870;2023-05-07T08:32:51;2.78;;;2.42;;
65463;SDS011;52063;45.110;9.870;2023-05-07T08:35:17;6.27;;;2.83;;
65463;SDS011;52063;45.110;9.870;2023-05-07T08:37:42;3.23;;;2.83;;
65463;SDS011;52063;45.110;9.870;2023-05-07T08:40:09;4.70;;;3.03;;
65463;SDS011;52063;45.110;9.870;2023-05-07T08:42:36;3.05;;;2.75;;
65463;SDS011;52063;45.110;9.870;2023-05-07T08:45:04;5.68;;;3.03;;
65463;SDS011;52063;45.110;9.870;2023-05-07T08:47:37;3.20;;;2.90;;
65463;SDS011;52063;45.110;9.870;2023-05-07T08:50:05;3.00;;;2.30;;
65463;SDS011;52063;45.110;9.870;2023-05-07T08:52:32;2.70;;;2.42;;
65463;SDS011;52063;45.110;9.870;2023-05-07T08:54:58;2.78;;;2.58;;
65463;SDS011;52063;45.110;9.870;2023-05-07T08:57:24;3.30;;;3.05;;
65463;SDS011;52063;45.110;9.870;2023-05-07T08:59:50;3.33;;;2.97;;
65463;SDS011;52063;45.110;9.870;2023-05-07T09:02:17;2.58;;;2.30;;
65463;SDS011;52063;45.110;9.870;2023-05-07T09:04:43;2.13;;;1.92;;
65463;SDS011;52063;45.110;9.870;2023-05-07T09:07:09;2.83;;;2.38;;
65463;SDS011;52063;45.110;9.870;2023-05-07T09:09:39;3.23;;;2.23;;
65463;SDS011;52063;45.110;9.870;2023-05-07T09:12:05;2.75;;;2.10;;
65463;SDS011;52063;45.110;9.870;2023-05-07T09:14:33;3.28;;;2.08;;
65463;SDS011;52063;45.110;9.870;2023-05-07T09:16:59;2.63;;;2.40;;
65463;SDS011;52063;45.110;9.870;2023-05-07T09:19:25;3.10;;;2.20;;
65463;SDS011;52063;45.110;9.870;2023-05-07T09:21:59;2.78;;;1.67;;
65463;SDS011;52063;45.110;9.870;2023-05-07T09:24:27;4.05;;;1.83;;
65463;SDS011;52063;45.110;9.870;2023-05-07T09:27:01;3.13;;;1.83;;
65463;SDS011;52063;45.110;9.870;2023-05-07T09:29:27;3.70;;;2.25;;
65463;SDS011;52063;45.110;9.870;2023-05-07T09:32:01;2.30;;;2.10;;
65463;SDS011;52063;45.110;9.870;2023-05-07T09:34:28;3.88;;;1.70;;
65463;SDS011;52063;45.110;9.870;2023-05-07T09:36:54;2.83;;;1.92;;
65463;SDS011;52063;45.110;9.870;2023-05-07T09:39:22;5.17;;;1.80;;
65463;SDS011;52063;45.110;9.870;2023-05-07T09:41:48;2.10;;;1.83;;
65463;SDS011;52063;45.110;9.870;2023-05-07T09:44:31;3.17;;;1.83;;
65463;SDS011;52063;45.110;9.870;2023-05-07T09:46:57;2.60;;;1.45;;
65463;SDS011;52063;45.110;9.870;2023-05-07T09:49:35;2.10;;;1.90;;
65463;SDS011;52063;45.110;9.870;2023-05-07T09:52:06;1.80;;;1.40;;
65463;SDS011;52063;45.110;9.870;2023-05-07T09:54:35;1.73;;;1.63;;
65463;SDS011;52063;45.110;9.870;2023-05-07T09:57:04;2.30;;;1.73;;
65463;SDS011;52063;45.110;9.870;2023-05-07T09:59:31;1.83;;;1.70;;
65463;SDS011;52063;45.110;9.870;2023-05-07T10:02:00;2.42;;;1.60;;
65463;SDS011;52063;45.110;9.870;2023-05-07T10:04:27;3.77;;;2.10;;
65463;SDS011;52063;45.110;9.870;2023-05-07T10:06:53;1.95;;;1.55;;
65463;SDS011;52063;45.110;9.870;2023-05-07T10:09:21;2.00;;;1.80;;
65463;SDS011;52063;45.110;9.870;2023-05-07T10:11:50;3.28;;;1.52;;
65463;SDS011;52063;45.110;9.870;2023-05-07T10:14:17;8.90;;;3.00;;
65463;SDS011;52063;45.110;9.870;2023-05-07T10:16:43;9.48;;;3.50;;
65463;SDS011;52063;45.110;9.870;2023-05-07T10:19:12;9.13;;;3.53;;
65463;SDS011;52063;45.110;9.870;2023-05-07T10:21:44;9.15;;;3.47;;
65463;SDS011;52063;45.110;9.870;2023-05-07T10:24:25;7.95;;;2.95;;
65463;SDS011;52063;45.110;9.870;2023-05-07T10:26:52;7.10;;;2.50;;
65463;SDS011;52063;45.110;9.870;2023-05-07T10:29:29;7.95;;;2.92;;
65463;SDS011;52063;45.110;9.870;2023-05-07T10:34:38;4.50;;;2.55;;
65463;SDS011;52063;45.110;9.870;2023-05-07T10:37:06;5.32;;;2.10;;
65463;SDS011;52063;45.110;9.870;2023-05-07T10:39:32;4.50;;;2.10;;
65463;SDS011;52063;45.110;9.870;2023-05-07T10:42:11;5.22;;;2.28;;
65463;SDS011;52063;45.110;9.870;2023-05-07T10:44:42;4.88;;;2.35;;
65463;SDS011;52063;45.110;9.870;2023-05-07T10:47:14;5.53;;;2.75;;
65463;SDS011;52063;45.110;9.870;2023-05-07T10:52:20;6.53;;;3.13;;
65463;SDS011;52063;45.110;9.870;2023-05-07T10:57:48;3.72;;;2.50;;
65463;SDS011;52063;45.110;9.870;2023-05-07T11:05:25;5.82;;;2.33;;
65463;SDS011;52063;45.110;9.870;2023-05-07T11:08:14;4.43;;;2.58;;
65463;SDS011;52063;45.110;9.870;2023-05-07T11:10:53;4.80;;;2.50;;
65463;SDS011;52063;45.110;9.870;2023-05-07T11:13:46;4.63;;;2.78;;
65463;SDS011;52063;45.110;9.870;2023-05-07T11:16:24;4.63;;;2.20;;
65463;SDS011;52063;45.110;9.870;2023-05-07T11:19:10;2.97;;;2.00;;
65463;SDS011;52063;45.110;9.870;2023-05-07T11:21:41;3.97;;;2.00;;
65463;SDS011;52063;45.110;9.870;2023-05-07T11:24:16;5.05;;;2.00;;
65463;SDS011;52063;45.110;9.870;2023-05-07T11:26:50;5.57;;;2.45;;
65463;SDS011;52063;45.110;9.870;2023-05-07T11:29:18;2.17;;;1.53;;
65463;SDS011;52063;45.110;9.870;2023-05-07T11:31:50;3.45;;;1.95;;
65463;SDS011;52063;45.110;9.870;2023-05-07T11:34:21;3.90;;;1.83;;
65463;SDS011;52063;45.110;9.870;2023-05-07T11:36:48;4.50;;;1.90;;
65463;SDS011;52063;45.110;9.870;2023-05-07T11:39:31;2.05;;;1.85;;
65463;SDS011;52063;45.110;9.870;2023-05-07T11:41:58;2.73;;;1.57;;
65463;SDS011;52063;45.110;9.870;2023-05-07T11:44:48;2.25;;;1.48;;
65463;SDS011;52063;45.110;9.870;2023-05-07T11:47:17;2.85;;;2.08;;
65463;SDS011;52063;45.110;9.870;2023-05-07T11:49:46;2.05;;;1.80;;
65463;SDS011;52063;45.110;9.870;2023-05-07T11:52:15;3.53;;;2.10;;
65463;SDS011;52063;45.110;9.870;2023-05-07T11:54:41;2.60;;;1.70;;
65463;SDS011;52063;45.110;9.870;2023-05-07T11:57:06;3.92;;;2.22;;
65463;SDS011;52063;45.110;9.870;2023-05-07T11:59:38;4.40;;;2.03;;
65463;SDS011;52063;45.110;9.870;2023-05-07T12:02:05;3.60;;;2.30;;
65463;SDS011;52063;45.110;9.870;2023-05-07T12:04:31;3.95;;;1.58;;
65463;SDS011;52063;45.110;9.870;2023-05-07T12:06:57;3.43;;;2.03;;
65463;SDS011;52063;45.110;9.870;2023-05-07T12:09:22;3.10;;;2.17;;
65463;SDS011;52063;45.110;9.870;2023-05-07T12:11:48;2.83;;;2.13;;
65463;SDS011;52063;45.110;9.870;2023-05-07T12:14:13;3.73;;;2.30;;
65463;SDS011;52063;45.110;9.870;2023-05-07T12:16:41;2.13;;;1.80;;
65463;SDS011;52063;45.110;9.870;2023-05-07T12:19:06;2.55;;;1.90;;
65463;SDS011;52063;45.110;9.870;2023-05-07T12:21:34;2.42;;;1.98;;
65463;SDS011;52063;45.110;9.870;2023-05-07T12:24:01;3.73;;;2.30;;
65463;SDS011;52063;45.110;9.870;2023-05-07T12:26:26;2.83;;;2.50;;
65463;SDS011;52063;45.110;9.870;2023-05-07T12:28:52;3.88;;;2.20;;
65463;SDS011;52063;45.110;9.870;2023-05-07T12:31:17;3.13;;;2.53;;
65463;SDS011;52063;45.110;9.870;2023-05-07T12:33:43;3.13;;;2.20;;
65463;SDS011;52063;45.110;9.870;2023-05-07T12:36:11;3.70;;;2.50;;
65463;SDS011;52063;45.110;9.870;2023-05-07T12:38:38;2.75;;;2.55;;
65463;SDS011;52063;45.110;9.870;2023-05-07T12:41:05;2.50;;;2.30;;
65463;SDS011;52063;45.110;9.870;2023-05-07T12:43:32;2.65;;;2.38;;
65463;SDS011;52063;45.110;9.870;2023-05-07T12:45:59;3.25;;;2.35;;
65463;SDS011;52063;45.110;9.870;2023-05-07T12:48:26;2.50;;;2.30;;
65463;SDS011;52063;45.110;9.870;2023-05-07T12:51:01;2.60;;;2.33;;
65463;SDS011;52063;45.110;9.870;2023-05-07T12:53:27;4.53;;;2.67;;
65463;SDS011;52063;45.110;9.870;2023-05-07T12:55:54;2.72;;;2.15;;
65463;SDS011;52063;45.110;9.870;2023-05-07T12:58:24;5.03;;;2.67;;
65463;SDS011;52063;45.110;9.870;2023-05-07T13:00:50;2.70;;;2.50;;
65463;SDS011;52063;45.110;9.870;2023-05-07T13:03:23;2.90;;;2.22;;
65463;SDS011;52063;45.110;9.870;2023-05-07T13:05:50;2.60;;;2.28;;
65463;SDS011;52063;45.110;9.870;2023-05-07T13:08:33;2.80;;;2.60;;
65463;SDS011;52063;45.110;9.870;2023-05-07T13:11:00;2.40;;;2.20;;
65463;SDS011;52063;45.110;9.870;2023-05-07T13:13:32;2.85;;;2.40;;
65463;SDS011;52063;45.110;9.870;2023-05-07T13:15:58;2.65;;;2.40;;
65463;SDS011;52063;45.110;9.870;2023-05-07T13:18:26;6.47;;;2.13;;
65463;SDS011;52063;45.110;9.870;2023-05-07T13:20:53;3.03;;;2.10;;
65463;SDS011;52063;45.110;9.870;2023-05-07T13:23:19;2.47;;;2.27;;
65463;SDS011;52063;45.110;9.870;2023-05-07T13:25:44;2.53;;;2.10;;
65463;SDS011;52063;45.110;9.870;2023-05-07T13:28:10;2.93;;;2.07;;
65463;SDS011;52063;45.110;9.870;2023-05-07T13:30:35;2.43;;;2.23;;
65463;SDS011;52063;45.110;9.870;2023-05-07T13:33:01;2.70;;;2.35;;
65463;SDS011;52063;45.110;9.870;2023-05-07T13:35:27;2.53;;;2.33;;
65463;SDS011;52063;45.110;9.870;2023-05-07T13:37:52;2.30;;;2.10;;
65463;SDS011;52063;45.110;9.870;2023-05-07T13:40:19;2.30;;;2.10;;
65463;SDS011;52063;45.110;9.870;2023-05-07T13:42:45;3.05;;;1.92;;
65463;SDS011;52063;45.110;9.870;2023-05-07T13:45:11;3.03;;;2.23;;
65463;SDS011;52063;45.110;9.870;2023-05-07T13:47:40;3.45;;;2.20;;
65463;SDS011;52063;45.110;9.870;2023-05-07T13:50:06;2.45;;;2.22;;
65463;SDS011;52063;45.110;9.870;2023-05-07T13:52:33;3.30;;;2.05;;
65463;SDS011;52063;45.110;9.870;2023-05-07T13:54:58;2.57;;;2.37;;
65463;SDS011;52063;45.110;9.870;2023-05-07T13:57:24;2.23;;;1.87;;
65463;SDS011;52063;45.110;9.870;2023-05-07T13:59:49;2.65;;;2.10;;
65463;SDS011;52063;45.110;9.870;2023-05-07T14:02:15;3.53;;;2.10;;
65463;SDS011;52063;45.110;9.870;2023-05-07T14:04:40;2.63;;;2.42;;
65463;SDS011;52063;45.110;9.870;2023-05-07T14:07:06;2.67;;;1.87;;
65463;SDS011;52063;45.110;9.870;2023-05-07T14:09:31;4.53;;;2.93;;
65463;SDS011;52063;45.110;9.870;2023-05-07T14:11:57;2.58;;;1.83;;
65463;SDS011;52063;45.110;9.870;2023-05-07T14:14:23;4.20;;;2.10;;
65463;SDS011;52063;45.110;9.870;2023-05-07T14:16:49;2.97;;;1.88;;
65463;SDS011;52063;45.110;9.870;2023-05-07T14:19:14;2.97;;;2.10;;
65463;SDS011;52063;45.110;9.870;2023-05-07T14:21:40;2.53;;;2.03;;
65463;SDS011;52063;45.110;9.870;2023-05-07T14:24:06;1.75;;;1.65;;
65463;SDS011;52063;45.110;9.870;2023-05-07T14:26:32;2.53;;;2.20;;
65463;SDS011;52063;45.110;9.870;2023-05-07T14:28:58;3.55;;;2.20;;
65463;SDS011;52063;45.110;9.870;2023-05-07T14:31:24;4.17;;;2.10;;
65463;SDS011;52063;45.110;9.870;2023-05-07T14:33:50;2.15;;;2.05;;
65463;SDS011;52063;45.110;9.870;2023-05-07T14:36:16;2.03;;;1.87;;
65463;SDS011;52063;45.110;9.870;2023-05-07T14:38:42;3.42;;;2.03;;
65463;SDS011;52063;45.110;9.870;2023-05-07T14:41:07;1.85;;;1.73;;
65463;SDS011;52063;45.110;9.870;2023-05-07T14:43:33;3.20;;;1.90;;
65463;SDS011;52063;45.110;9.870;2023-05-07T14:45:58;1.53;;;1.23;;
65463;SDS011;52063;45.110;9.870;2023-05-07T14:48:24;1.73;;;1.60;;
65463;SDS011;52063;45.110;9.870;2023-05-07T14:50:49;4.13;;;2.27;;
65463;SDS011;52063;45.110;9.870;2023-05-07T14:53:15;3.53;;;2.10;;
65463;SDS011;52063;45.110;9.870;2023-05-07T14:55:41;2.13;;;1.92;;
65463;SDS011;52063;45.110;9.870;2023-05-07T14:58:06;2.90;;;2.10;;
65463;SDS011;52063;45.110;9.870;2023-05-07T15:00:32;3.13;;;2.15;;
65463;SDS011;52063;45.110;9.870;2023-05-07T15:03:01;3.57;;;2.10;;